DW0427 Weather Reports


Display with metric or nautical units.
time (UTC)temp
F
wind
direction
speed
MPH
gust
MPH
rain 1hr
in
rain 24hr
in
rain mn
in
humidity
%
barometer
mb
20190121173753 39 297 17.0 28.0 0.09 0.16 0.16 92 1008.0
20190121173554 39 296 18.0 31.0 0.09 0.16 0.16 92 1007.9
20190121173353 39 296 18.0 31.0 0.09 0.16 0.16 91 1007.9
20190121173153 39 295 18.0 31.0 0.10 0.16 0.16 91 1007.9
20190121172953 39 293 18.0 32.0 0.10 0.16 0.16 91 1007.8
20190121172753 40 292 17.0 33.0 0.09 0.15 0.15 90 1007.8
20190121172554 40 288 17.0 33.0 0.09 0.15 0.15 90 1007.8
20190121172353 40 281 16.0 33.0 0.09 0.15 0.15 89 1007.6
20190121172153 41 273 15.0 33.0 0.08 0.14 0.14 88 1007.5
20190121171954 42 265 14.0 33.0 0.09 0.14 0.14 89 1007.5
20190121171753 43 250 13.0 28.0 0.08 0.13 0.13 92 1007.4
20190121171553 43 246 13.0 28.0 0.07 0.12 0.12 92 1007.1
20190121171353 43 246 13.0 28.0 0.08 0.12 0.12 91 1007.1
20190121171153 43 242 14.0 28.0 0.08 0.12 0.12 91 1007.0
20190121170954 43 237 14.0 28.0 0.08 0.12 0.12 91 1007.2
20190121170753 43 233 15.0 28.0 0.08 0.12 0.12 91 1007.1
20190121170553 43 232 16.0 25.0 0.07 0.11 0.11 91 1007.1
20190121170354 43 229 16.0 25.0 0.07 0.11 0.11 91 1007.2
20190121170154 43 228 16.0 25.0 0.06 0.10 0.10 91 1007.2
20190121165953 43 229 16.0 25.0 0.06 0.10 0.10 91 1007.2
20190121165754 43 227 15.0 27.0 0.06 0.10 0.10 91 1007.2
20190121165554 43 226 15.0 27.0 0.07 0.10 0.10 91 1007.2
20190121165353 43 225 15.0 27.0 0.07 0.10 0.10 91 1007.2
20190121165153 43 224 14.0 27.0 0.07 0.10 0.10 91 1007.2
20190121164954 43 222 14.0 27.0 0.07 0.10 0.10 91 1007.3
20190121164753 43 222 13.0 25.0 0.06 0.09 0.09 91 1007.2
20190121164553 43 222 14.0 25.0 0.05 0.08 0.08 91 1007.2
20190121164353 43 220 14.0 29.0 0.05 0.08 0.08 91 1007.3
20190121164154 43 217 14.0 29.0 0.05 0.08 0.08 91 1007.2
20190121163954 43 216 15.0 29.0 0.06 0.08 0.08 91 1007.3
20190121163754 43 213 15.0 29.0 0.05 0.07 0.07 91 1007.2
20190121163553 43 209 15.0 29.0 0.05 0.07 0.07 91 1007.3
20190121163354 43 208 14.0 26.0 0.05 0.07 0.07 91 1007.3
20190121163154 43 208 13.0 23.0 0.04 0.06 0.06 91 1007.4
20190121162954 43 206 12.0 23.0 0.04 0.06 0.06 91 1007.4
20190121162754 43 205 12.0 23.0 0.04 0.06 0.06 91 1007.4
20190121162554 43 204 11.0 23.0 0.04 0.06 0.06 92 1007.5
20190121162353 43 203 11.0 23.0 0.04 0.06 0.06 92 1007.5
20190121162153 42 202 12.0 23.0 0.04 0.06 0.06 92 1007.5
20190121161953 42 199 12.0 23.0 0.03 0.05 0.05 92 1007.6
20190121161753 42 198 12.0 25.0 0.03 0.05 0.05 92 1007.6
20190121161553 42 197 12.0 25.0 0.03 0.05 0.05 92 1007.7
20190121161353 42 195 12.0 25.0 0.02 0.04 0.04 92 1007.8
20190121161154 42 196 11.0 25.0 0.02 0.04 0.04 92 1007.8
20190121160954 42 196 11.0 25.0 0.02 0.04 0.04 92 1007.8
20190121160753 42 197 11.0 22.0 0.02 0.04 0.04 92 1007.8
20190121160553 42 196 12.0 22.0 0.02 0.04 0.04 92 1007.8
20190121160353 42 197 12.0 20.0 0.02 0.04 0.04 92 1007.8
20190121160153 42 194 13.0 21.0 0.02 0.04 0.04 92 1007.9
20190121155954 42 194 13.0 21.0 0.02 0.04 0.04 92 1008.0
20190121155754 42 192 14.0 22.0 0.02 0.04 0.04 92 1008.2
20190121155554 42 193 14.0 22.0 0.01 0.03 0.03 92 1008.2
20190121155353 42 191 14.0 22.0 0.02 0.03 0.03 91 1008.3
20190121155154 42 189 14.0 25.0 0.02 0.03 0.03 91 1008.2
20190121154953 42 190 14.0 25.0 0.02 0.03 0.03 91 1008.3
20190121154754 42 190 14.0 26.0 0.02 0.03 0.03 91 1008.3
20190121154553 42 188 14.0 26.0 0.02 0.03 0.03 91 1008.3
20190121154353 42 188 14.0 26.0 0.02 0.03 0.03 91 1008.4
20190121154157 42 189 14.0 26.0 0.02 0.03 0.03 91 1008.5
20190121153953 42 188 14.0 26.0 0.01 0.02 0.02 91 1008.5
20190121153754 42 189 14.0 26.0 0.01 0.02 0.02 91 1008.8
20190121153553 42 189 13.0 26.0 0.01 0.02 0.02 91 1008.8
20190121153353 42 189 13.0 26.0 0.01 0.02 0.02 91 1008.8
20190121153153 42 190 13.0 26.0 0.01 0.02 0.02 90 1008.9
20190121152954 42 191 13.0 24.0 0.01 0.02 0.02 90 1009.0
20190121152753 42 191 13.0 24.0 0.01 0.02 0.02 90 1009.1
20190121152553 42 190 13.0 24.0 0.01 0.02 0.02 90 1009.2
20190121152353 42 191 13.0 23.0 0.01 0.02 0.02 90 1009.5
20190121152153 42 192 13.0 24.0 0.01 0.02 0.02 90 1009.5
20190121151954 42 193 13.0 26.0 0.01 0.02 0.02 89 1009.6
20190121151754 42 194 13.0 26.0 0.01 0.02 0.02 89 1009.7
20190121151553 42 194 14.0 26.0 0.01 0.02 0.02 89 1009.7
20190121151353 42 194 14.0 26.0 0.01 0.02 0.02 89 1009.8
20190121151153 42 195 14.0 26.0 0.01 0.02 0.02 88 1009.9
20190121150954 42 196 13.0 29.0 0.01 0.02 0.02 88 1009.9
20190121150754 43 196 13.0 29.0 0.01 0.02 0.02 88 1010.0
20190121150554 43 197 13.0 29.0 0.01 0.02 0.02 88 1010.1
20190121150353 43 198 13.0 29.0 0.01 0.02 0.02 88 1010.3
20190121150153 43 196 13.0 29.0 0.01 0.02 0.02 88 1010.3
20190121145954 43 195 13.0 27.0 0.01 0.02 0.02 87 1010.4
20190121145753 43 197 13.0 27.0 0.01 0.02 0.02 87 1010.5
20190121145553 43 197 13.0 27.0 0.01 0.02 0.02 87 1010.7
20190121145354 43 198 13.0 27.0 0.00 0.01 0.01 87 1010.6
20190121145154 43 199 13.0 25.0 0.00 0.01 0.01 86 1010.8
20190121144953 43 200 13.0 25.0 0.00 0.01 0.01 86 1010.8
20190121144754 43 199 12.0 24.0 0.00 0.01 0.01 86 1010.8
20190121144554 43 199 12.0 24.0 0.00 0.01 0.01 86 1010.9
20190121144354 43 199 12.0 24.0 0.00 0.01 0.01 86 1010.9
20190121144153 43 200 12.0 24.0 0.00 0.01 0.01 86 1011.0
20190121143954 43 199 13.0 25.0 0.00 0.01 0.01 86 1011.0
20190121143754 43 199 13.0 25.0 0.00 0.01 0.01 86 1011.1
20190121143554 43 199 14.0 25.0 0.00 0.01 0.01 86 1011.2
20190121143353 43 200 15.0 25.0 0.00 0.01 0.01 86 1011.3
20190121143153 43 198 15.0 32.0 0.00 0.01 0.01 86 1011.5
20190121142954 43 199 15.0 32.0 0.00 0.01 0.01 86 1011.7
20190121142754 43 199 14.0 32.0 0.00 0.01 0.01 86 1011.7
20190121142554 43 200 14.0 32.0 0.00 0.01 0.01 86 1011.7
20190121142354 43 198 14.0 32.0 0.00 0.01 0.01 86 1011.7
20190121142154 43 198 13.0 22.0 0.00 0.01 0.01 86 1011.8
20190121141954 43 196 13.0 22.0 0.00 0.01 0.01 86 1011.8
20190121141755 42 194 13.0 22.0 0.00 0.01 0.01 87 1012.0
20190121141554 42 193 12.0 22.0 0.00 0.01 0.01 87 1012.1
20190121141354 42 192 12.0 22.0 0.00 0.01 0.01 87 1012.2
20190121141155 42 190 11.0 22.0 0.00 0.01 0.01 87 1012.3
20190121140954 42 191 11.0 22.0 0.00 0.01 0.01 87 1012.3
20190121140754 42 191 10.0 22.0 0.00 0.01 0.01 87 1012.4
20190121140555 42 190 10.0 22.0 0.00 0.01 0.01 87 1012.4
20190121140354 42 190 11.0 22.0 0.00 0.01 0.01 87 1012.6
20190121140155 42 193 12.0 22.0 0.00 0.01 0.01 87 1012.6
20190121135954 42 192 12.0 21.0 0.00 0.01 0.01 87 1012.9
20190121135755 42 194 13.0 21.0 0.00 0.01 0.01 87 1013.1
20190121135555 42 194 12.0 21.0 0.00 0.01 0.01 88 1013.1
20190121135354 42 193 12.0 23.0 0.00 0.01 0.01 88 1013.1
20190121135155 42 190 11.0 23.0 0.00 0.01 0.01 89 1013.2
20190121134955 41 189 11.0 23.0 0.00 0.01 0.01 89 1013.2
20190121134754 41 185 10.0 23.0 0.00 0.01 0.01 90 1013.4
20190121134555 40 181 10.0 23.0 0.00 0.01 0.01 91 1013.3
20190121134354 40 175 9.0 21.0 0.00 0.01 0.01 91 1013.4
20190121134155 39 171 9.0 15.0 0.00 0.01 0.01 91 1013.5
20190121133954 39 167 9.0 15.0 0.00 0.01 0.01 91 1013.6
20190121133755 39 165 10.0 15.0 0.00 0.01 0.01 91 1013.7
20190121133554 39 165 10.0 15.0 0.00 0.01 0.01 91 1013.7
20190121133354 39 164 10.0 14.0 0.00 0.01 0.01 91 1013.6
20190121133154 38 165 10.0 14.0 0.00 0.01 0.01 90 1013.7
20190121132955 38 165 10.0 15.0 0.00 0.01 0.01 90 1013.7
20190121132755 38 166 10.0 15.0 0.00 0.01 0.01 90 1013.7
20190121132554 38 167 11.0 15.0 0.00 0.01 0.01 90 1013.7
20190121132358 38 167 11.0 15.0 0.00 0.01 0.01 90 1013.7
20190121132154 38 168 11.0 15.0 0.00 0.01 0.01 90 1013.8
20190121131955 38 167 11.0 16.0 0.00 0.01 0.01 90 1013.9
20190121131755 38 166 11.0 16.0 0.00 0.01 0.01 89 1014.0
20190121131555 38 166 11.0 16.0 0.00 0.01 0.01 89 1014.1
20190121131355 38 165 11.0 16.0 0.00 0.01 0.01 89 1014.2
20190121131155 38 164 11.0 16.0 0.00 0.01 0.01 89 1014.3
20190121130955 38 164 11.0 16.0 0.00 0.01 0.01 89 1014.3
20190121130755 38 164 11.0 16.0 0.00 0.01 0.01 89 1014.4
20190121130555 38 164 11.0 16.0 0.00 0.01 0.01 89 1014.5
20190121130355 38 164 11.0 16.0 0.00 0.01 0.01 89 1014.5
20190121130155 38 164 11.0 16.0 0.00 0.01 0.01 89 1014.6
20190121125955 38 164 10.0 16.0 0.00 0.01 0.01 89 1014.7
20190121125755 38 166 10.0 15.0 0.00 0.01 0.01 89 1015.0
20190121125555 38 167 10.0 15.0 0.00 0.01 0.01 89 1015.0
20190121125355 38 168 10.0 15.0 0.00 0.01 0.01 89 1015.1
20190121125155 38 169 9.0 14.0 0.00 0.01 0.01 89 1015.3
20190121124955 38 169 9.0 14.0 0.00 0.01 0.01 89 1015.4
20190121124755 38 170 10.0 14.0 0.00 0.01 0.01 89 1015.5
20190121124555 38 170 10.0 14.0 0.00 0.01 0.01 89 1015.5
20190121124355 38 171 10.0 14.0 0.00 0.01 0.01 90 1015.6
20190121124155 38 172 10.0 14.0 0.00 0.01 0.01 89 1015.7
20190121123955 38 171 10.0 15.0 0.00 0.01 0.01 90 1015.7
20190121123755 38 170 10.0 15.0 0.00 0.01 0.01 90 1015.9
20190121123556 38 169 10.0 15.0 0.00 0.01 0.01 90 1016.0
20190121123355 38 168 10.0 15.0 0.00 0.01 0.01 90 1016.0
20190121123155 38 167 10.0 15.0 0.00 0.01 0.01 91 1016.1
20190121122956 38 166 10.0 14.0 0.00 0.01 0.01 90 1016.0
20190121122756 38 166 10.0 14.0 0.00 0.01 0.01 90 1016.3
20190121122555 38 166 10.0 15.0 0.00 0.01 0.01 90 1016.3
20190121122355 38 167 10.0 15.0 0.00 0.01 0.01 90 1016.3
20190121122155 38 167 10.0 15.0 0.00 0.01 0.01 90 1016.3
20190121121955 38 169 11.0 15.0 0.00 0.01 0.01 90 1016.4
20190121121755 38 171 11.0 15.0 0.00 0.01 0.01 90 1016.4
20190121121555 38 173 12.0 16.0 0.00 0.01 0.01 90 1016.5
20190121121355 38 175 12.0 16.0 0.00 0.01 0.01 90 1016.5
20190121121155 38 177 12.0 18.0 0.00 0.01 0.01 90 1016.5
20190121120955 38 177 11.0 18.0 0.00 0.01 0.01 90 1016.6
20190121120755 38 177 11.0 18.0 0.00 0.01 0.01 91 1016.6
20190121120556 38 174 11.0 18.0 0.00 0.01 0.01 91 1016.8
20190121120355 37 170 10.0 18.0 0.00 0.01 0.01 92 1016.8
20190121120155 37 167 10.0 16.0 0.00 0.01 0.01 92 1016.8
20190121115956 37 164 10.0 16.0 0.00 0.01 0.01 93 1016.9
20190121115755 36 161 10.0 13.0 0.00 0.01 0.01 93 1016.9
20190121115555 36 161 10.0 13.0 0.00 0.01 0.01 93 1016.9
20190121115356 36 160 11.0 13.0 0.00 0.01 0.01 92 1016.9
20190121115155 36 160 11.0 13.0 0.00 0.01 0.01 92 1016.9
20190121114955 36 159 11.0 13.0 0.00 0.01 0.01 92 1017.1
20190121114758 36 159 11.0 18.0 0.00 0.01 0.01 92 1017.1
20190121114555 35 159 11.0 18.0 0.00 0.01 0.01 92 1017.2
20190121114355 35 159 11.0 18.0 0.00 0.01 0.01 92 1017.3
20190121114156 35 160 11.0 18.0 0.00 0.01 0.01 92 1017.3
20190121113955 36 161 11.0 18.0 0.00 0.01 0.01 92 1017.2
20190121113755 35 162 11.0 15.0 0.00 0.01 0.01 92 1017.2
20190121113555 35 162 11.0 15.0 0.01 0.01 0.01 92 1017.3
20190121113356 35 163 11.0 15.0 0.01 0.01 0.01 92 1017.4
20190121113155 35 164 11.0 15.0 0.01 0.01 0.01 92 1017.6
20190121112955 35 165 11.0 15.0 0.01 0.01 0.01 92 1017.7
20190121112755 35 165 11.0 16.0 0.01 0.01 0.01 92 1017.8
20190121112555 35 166 11.0 16.0 0.01 0.01 0.01 92 1017.9
20190121112356 35 166 11.0 16.0 0.01 0.01 0.01 92 1018.1
20190121112156 34 167 11.0 16.0 0.01 0.01 0.01 92 1018.1
20190121111955 34 167 11.0 16.0 0.01 0.01 0.01 92 1018.2
20190121111755 34 167 11.0 14.0 0.01 0.01 0.01 92 1018.1
20190121111556 34 166 11.0 15.0 0.01 0.01 0.01 92 1018.2
20190121111356 34 166 11.0 16.0 0.01 0.01 0.01 92 1018.3
20190121111156 34 166 12.0 16.0 0.01 0.01 0.01 92 1018.3
20190121110955 34 166 12.0 16.0 0.01 0.01 0.01 92 1018.4
20190121110756 34 166 12.0 16.0 0.01 0.01 0.01 92 1018.3
20190121110556 34 167 12.0 16.0 0.01 0.01 0.01 92 1018.4
20190121110356 34 167 12.0 16.0 0.01 0.01 0.01 92 1018.5
20190121110155 34 167 12.0 15.0 0.01 0.01 0.01 92 1018.5
20190121105956 34 168 12.0 15.0 0.01 0.01 0.01 92 1018.6
20190121105756 34 169 12.0 18.0 0.01 0.01 0.01 91 1018.6
20190121105555 34 171 12.0 18.0 0.01 0.01 0.01 91 1018.6
20190121105355 34 172 12.0 18.0 0.01 0.01 0.01 91 1018.6
20190121105156 34 174 12.0 18.0 0.01 0.01 0.01 91 1018.7
20190121104956 34 174 11.0 18.0 0.01 0.01 0.01 92 1018.7
20190121104756 34 175 11.0 18.0 0.01 0.01 0.01 92 1018.8
20190121104555 34 175 11.0 18.0 0.01 0.01 0.01 92 1018.8
20190121104356 34 175 11.0 18.0 0.01 0.01 0.01 92 1019.0
20190121104156 34 174 10.0 18.0 0.01 0.01 0.01 92 1019.0
20190121103956 34 174 10.0 15.0 0.01 0.01 0.01 92 1019.0
20190121103755 34 174 10.0 15.0 0.01 0.01 0.01 92 1019.1
20190121103556 34 174 10.0 15.0 0.00 0.00 0.00 92 1019.1
20190121103356 34 174 10.0 15.0 0.00 0.00 0.00 92 1019.1
20190121103156 34 173 10.0 15.0 0.00 0.00 0.00 92 1019.2
20190121102956 34 173 10.0 15.0 0.00 0.00 0.00 93 1019.1
20190121102756 34 172 10.0 15.0 0.00 0.00 0.00 93 1019.1
20190121102555 34 171 10.0 15.0 0.00 0.00 0.00 93 1019.2
20190121102356 34 171 10.0 14.0 0.00 0.00 0.00 93 1019.3
20190121102156 34 171 10.0 14.0 0.00 0.00 0.00 93 1019.2
20190121101956 34 170 10.0 14.0 0.00 0.00 0.00 93 1019.3
20190121101755 33 170 10.0 15.0 0.00 0.00 0.00 93 1019.3
20190121101556 33 170 10.0 15.0 0.00 0.00 0.00 93 1019.3
20190121101356 33 169 10.0 15.0 0.00 0.00 0.00 93 1019.4
20190121101156 33 169 10.0 15.0 0.00 0.00 0.00 93 1019.4
20190121100956 33 170 10.0 15.0 0.00 0.00 0.00 93 1019.5
20190121100756 33 170 11.0 15.0 0.00 0.00 0.00 93 1019.6
20190121100556 33 171 11.0 15.0 0.00 0.00 0.00 93 1019.7
20190121100356 33 171 11.0 15.0 0.00 0.00 0.00 93 1019.6
20190121100156 33 170 11.0 16.0 0.00 0.00 0.00 93 1019.7
20190121095956 33 169 11.0 16.0 0.00 0.00 0.00 94 1019.7
20190121095756 33 168 11.0 16.0 0.00 0.00 0.00 94 1019.7
20190121095556 33 168 11.0 16.0 0.00 0.00 0.00 94 1019.7
20190121095356 33 168 11.0 16.0 0.00 0.00 0.00 94 1019.6
20190121095156 33 171 11.0 15.0 0.00 0.00 0.00 94 1019.7
20190121094956 33 172 11.0 15.0 0.00 0.00 0.00 94 1019.7
20190121094757 33 173 11.0 15.0 0.00 0.00 0.00 94 1019.7
20190121094556 33 174 10.0 15.0 0.00 0.00 0.00 94 1019.7
20190121094356 33 174 10.0 15.0 0.00 0.00 0.00 94 1019.8
20190121094156 33 173 9.0 15.0 0.00 0.00 0.00 94 1020.2
20190121093957 33 173 9.0 15.0 0.00 0.00 0.00 95 1020.2
20190121093756 33 172 9.0 14.0 0.00 0.00 0.00 95 1020.3
20190121093556 33 171 9.0 13.0 0.00 0.00 0.00 95 1020.3
20190121093356 32 171 9.0 13.0 0.00 0.00 0.00 95 1020.4
20190121093156 32 171 10.0 13.0 0.00 0.00 0.00 95 1020.4
20190121092956 32 171 10.0 13.0 0.00 0.00 0.00 95 1020.4
20190121092756 32 171 10.0 13.0 0.00 0.00 0.00 95 1020.4
20190121092556 33 171 10.0 15.0 0.00 0.00 0.00 95 1020.4
20190121092356 33 171 11.0 15.0 0.00 0.00 0.00 95 1020.4
20190121092156 33 171 11.0 15.0 0.00 0.00 0.00 95 1020.4
20190121091957 32 171 11.0 15.0 0.00 0.00 0.00 95 1020.3
20190121091756 32 170 10.0 15.0 0.00 0.00 0.00 95 1020.4
20190121091556 32 169 10.0 14.0 0.00 0.00 0.00 95 1020.5
20190121091357 32 168 9.0 14.0 0.00 0.00 0.00 95 1020.5
20190121091156 32 167 9.0 14.0 0.00 0.00 0.00 95 1020.5
20190121090957 32 165 9.0 14.0 0.00 0.00 0.00 95 1020.5
20190121090756 32 164 9.0 13.0 0.00 0.00 0.00 95 1020.6
20190121090557 32 163 8.0 13.0 0.00 0.01 0.00 95 1020.6
20190121090357 32 164 8.0 13.0 0.00 0.01 0.00 95 1020.7
20190121090157 32 165 7.0 13.0 0.00 0.01 0.00 96 1020.7
20190121085959 32 165 7.0 13.0 0.00 0.01 0.00 96 1020.7
20190121085756 32 166 6.0 13.0 0.00 0.01 0.00 96 1020.6
20190121085557 32 167 6.0 13.0 0.00 0.01 0.00 96 1020.6
20190121085356 32 167 5.0 9.0 0.00 0.02 0.00 96 1020.7
20190121085157 32 167 5.0 9.0 0.00 0.02 0.00 96 1020.7
20190121084957 32 167 5.0 9.0 0.00 0.02 0.00 96 1020.8
20190121084756 32 167 5.0 9.0 0.00 0.02 0.00 96 1020.7
20190121084557 32 167 6.0 8.0 0.00 0.02 0.00 96 1020.8
20190121084357 32 167 6.0 8.0 0.00 0.02 0.00 96 1020.8
20190121084158 32 167 7.0 9.0 0.00 0.02 0.00 96 1020.9
20190121083957 31 167 7.0 12.0 0.00 0.02 0.00 96 1021.1
20190121083757 31 168 8.0 12.0 0.00 0.02 0.00 96 1021.0
20190121083558 31 168 7.0 12.0 0.00 0.02 0.00 96 1021.0
20190121083357 31 168 7.0 12.0 0.00 0.02 0.00 96 1021.1
20190121083157 31 168 6.0 12.0 0.00 0.02 0.00 96 1021.4
20190121082957 31 169 6.0 12.0 0.00 0.02 0.00 96 1021.2
20190121082757 31 169 6.0 11.0 0.00 0.02 0.00 96 1021.0
20190121082557 31 169 5.0 11.0 0.00 0.02 0.00 96 1021.3
20190121082358 32 169 5.0 10.0 0.00 0.02 0.00 96 1021.4
20190121082157 32 169 6.0 10.0 0.00 0.02 0.00 96 1021.7
20190121081957 32 169 6.0 10.0 0.00 0.02 0.00 96 1021.6
20190121081757 32 169 6.0 13.0 0.00 0.02 0.00 96 1021.7
20190121081557 32 165 7.0 13.0 0.00 0.02 0.00 96 1021.7
20190121081358 32 161 7.0 13.0 0.00 0.02 0.00 96 1021.7
20190121081157 32 156 6.0 13.0 0.00 0.02 0.00 96 1021.7
20190121080958 32 152 6.0 13.0 0.00 0.02 0.00 96 1021.7
20190121080758 31 145 5.0 13.0 0.00 0.02 0.00 96 1021.6
20190121080557 31 139 5.0 10.0 0.00 0.02 0.00 96 1021.6
20190121080358 31 138 5.0 10.0 0.00 0.02 0.00 96 1021.6
20190121080157 31 138 5.0 10.0 0.00 0.02 0.00 96 1021.6
20190121075957 31 138 5.0 10.0 0.00 0.02 0.00 96 1021.7
20190121075757 31 138 6.0 10.0 0.00 0.02 0.00 96 1021.8
20190121075558 31 138 6.0 10.0 0.00 0.02 0.00 96 1021.7
20190121075357 31 138 6.0 9.0 0.00 0.02 0.00 96 1021.7
20190121075157 31 138 6.0 9.0 0.00 0.02 0.00 96 1021.9
20190121074957 31 138 6.0 9.0 0.00 0.02 0.00 96 1022.0
20190121074758 31 138 6.0 9.0 0.00 0.02 0.00 96 1022.0
20190121074557 31 138 5.0 9.0 0.00 0.02 0.00 96 1022.1
20190121074358 31 138 5.0 7.0 0.00 0.02 0.00 96 1022.2
20190121074158 31 138 5.0 7.0 0.00 0.02 0.00 96 1022.0
20190121073957 30 138 5.0 7.0 0.00 0.02 0.00 96 1022.2
20190121073758 30 138 5.0 7.0 0.00 0.02 0.00 96 1022.3
20190121073557 30 138 5.0 7.0 0.00 0.02 0.00 96 1022.4
20190121073358 30 138 5.0 6.0 0.00 0.02 0.00 96 1022.3
20190121073157 30 138 6.0 6.0 0.00 0.02 0.00 96 1022.4
20190121072958 30 138 6.0 7.0 0.00 0.02 0.00 96 1022.4
20190121072757 30 138 6.0 7.0 0.00 0.02 0.00 96 1022.5
20190121072558 30 138 6.0 7.0 0.00 0.02 0.00 96 1022.6
20190121072357 30 138 6.0 7.0 0.00 0.02 0.00 96 1022.5
20190121072158 30 138 6.0 8.0 0.00 0.02 0.00 96 1022.6
20190121071957 30 138 5.0 8.0 0.00 0.02 0.00 96 1022.6
20190121071758 30 138 4.0 8.0 0.00 0.02 0.00 96 1022.6
20190121071558 30 138 3.0 8.0 0.00 0.02 0.00 96 1022.6
20190121071358 30 138 2.0 8.0 0.00 0.02 0.00 96 1022.6
20190121070958 30 138 1.0 8.0 0.00 0.02 0.00 96 1022.6
20190121070758 30 138 0.0 8.0 0.00 0.02 0.00 96 1022.7
20190121070558 30 137 0.0 7.0 0.00 0.02 0.00 96 1022.6
20190121070357 30 0 0.0 0.0 0.00 0.02 0.00 96 1022.9
20190121070158 30 0 0.0 0.0 0.00 0.02 0.00 96 1022.8
20190121065958 30 0 0.0 0.0 0.00 0.02 0.00 96 1022.9
20190121065758 30 0 0.0 0.0 0.00 0.02 0.00 96 1022.9
20190121065558 30 0 0.0 0.0 0.00 0.02 0.00 96 1022.9
20190121065358 30 0 0.0 0.0 0.00 0.02 0.00 96 1023.0
20190121065158 30 0 0.0 0.0 0.00 0.02 0.00 96 1023.1
20190121065001 30 0 0.0 0.0 0.00 0.02 0.00 96 1023.0
20190121064758 30 0 0.0 0.0 0.00 0.02 0.00 96 1023.2
20190121064558 30 0 0.0 0.0 0.00 0.02 0.00 96 1023.2
20190121064358 30 0 0.0 0.0 0.00 0.02 0.00 96 1023.2
20190121064158 30 0 0.0 0.0 0.00 0.02 0.00 96 1023.1
20190121063958 30 0 0.0 0.0 0.00 0.02 0.00 96 1023.2
20190121063758 31 0 0.0 0.0 0.00 0.02 0.00 96 1023.3
20190121063558 31 0 0.0 0.0 0.00 0.02 0.00 96 1023.2
20190121063358 31 0 0.0 0.0 0.00 0.02 0.00 96 1023.2
20190121063158 31 0 0.0 0.0 0.00 0.02 0.00 96 1023.2
20190121062958 31 0 0.0 0.0 0.00 0.02 0.00 96 1023.2
20190121062758 31 0 0.0 0.0 0.00 0.02 0.00 96 1023.1
20190121062602 31 0 0.0 0.0 0.00 0.02 0.00 96 1023.2
20190121062358 31 0 0.0 0.0 0.00 0.02 0.00 96 1023.3
20190121062158 31 0 0.0 0.0 0.00 0.02 0.00 96 1023.3
20190121061958 31 0 1.0 0.0 0.00 0.02 0.00 96 1023.4
20190121061759 31 0 2.0 0.0 0.00 0.02 0.00 96 1023.4
20190121061558 31 0 3.0 0.0 0.00 0.02 0.00 96 1023.4
20190121061401 31 138 3.0 4.0 0.00 0.02 0.00 96 1023.3
20190121061158 31 137 4.0 6.0 0.00 0.02 0.00 96 1023.4
20190121060958 31 137 5.0 6.0 0.00 0.02 0.00 96 1023.3
20190121060759 31 138 5.0 6.0 0.00 0.02 0.00 96 1023.4
20190121060558 31 138 5.0 6.0 0.00 0.02 0.00 96 1023.3
20190121060358 31 138 5.0 6.0 0.00 0.02 0.00 96 1023.4
20190121060158 31 138 5.0 6.0 0.00 0.02 0.00 96 1023.3
20190121055958 31 138 6.0 6.0 0.00 0.02 0.00 96 1023.4
20190121055758 31 138 6.0 7.0 0.00 0.02 0.00 96 1023.4
20190121055602 31 137 7.0 9.0 0.00 0.02 0.00 96 1023.4
20190121055358 31 137 7.0 10.0 0.00 0.02 0.00 96 1023.4
20190121055159 31 137 7.0 10.0 0.00 0.02 0.00 96 1023.3
20190121054958 31 137 7.0 10.0 0.00 0.02 0.00 96 1023.4
20190121054759 31 137 6.0 10.0 0.00 0.02 0.00 96 1023.5
20190121054558 31 137 6.0 10.0 0.00 0.02 0.00 96 1023.6
20190121054358 31 137 6.0 10.0 0.00 0.02 0.00 96 1023.6
20190121054159 31 137 6.0 10.0 0.00 0.02 0.00 96 1023.6
20190121053959 31 137 6.0 10.0 0.00 0.02 0.00 96 1023.6
20190121053758 31 136 5.0 10.0 0.00 0.02 0.00 96 1023.5
20190121053559 31 129 4.0 11.0 0.00 0.02 0.00 96 1023.6
20190121053358 31 119 3.0 11.0 0.00 0.02 0.00 96 1023.7
20190121053159 30 112 2.0 11.0 0.00 0.02 0.00 96 1023.8
20190121052959 30 89 1.0 11.0 0.00 0.02 0.00 96 1023.7
20190121052758 30 30 0.0 11.0 0.00 0.02 0.00 96 1023.8
20190121052558 29 344 0.0 9.0 0.00 0.02 0.00 96 1023.7
20190121052359 29 0 0.0 0.0 0.00 0.02 0.00 96 1023.9
20190121052159 29 0 0.0 0.0 0.00 0.02 0.00 96 1023.8
20190121051958 29 0 0.0 0.0 0.00 0.02 0.00 96 1023.9
20190121051759 28 0 0.0 0.0 0.00 0.02 0.00 96 1023.9
20190121051558 28 0 0.0 0.0 0.00 0.02 0.00 96 1023.9
20190121051359 29 0 0.0 0.0 0.00 0.02 0.00 96 1024.0
20190121051159 29 0 0.0 0.0 0.00 0.02 0.00 96 1024.0
20190121050959 29 0 0.0 0.0 0.00 0.02 0.00 96 1024.1
20190121050759 29 0 0.0 0.0 0.00 0.02 0.00 96 1024.1
20190121050559 29 0 0.0 0.0 0.00 0.02 0.00 96 1024.1
20190121050359 29 0 1.0 0.0 0.00 0.02 0.00 96 1024.1
20190121050159 29 0 1.0 0.0 0.00 0.02 0.00 96 1024.1
20190121045959 29 344 1.0 5.0 0.00 0.02 0.00 96 1024.2
20190121045758 29 344 1.0 5.0 0.00 0.02 0.00 96 1024.2
20190121045559 29 344 1.0 5.0 0.00 0.02 0.00 96 1024.2
20190121045359 29 344 1.0 5.0 0.00 0.02 0.00 96 1024.2
20190121045159 29 344 0.0 5.0 0.00 0.02 0.00 96 1024.3
20190121044958 29 344 0.0 5.0 0.00 0.02 0.00 96 1024.3
20190121044759 29 344 0.0 5.0 0.00 0.02 0.00 96 1024.3
20190121044558 28 343 0.0 5.0 0.00 0.02 0.00 96 1024.3
20190121044358 28 0 0.0 0.0 0.00 0.02 0.00 96 1024.4
20190121044159 28 0 0.0 0.0 0.00 0.02 0.00 96 1024.4
20190121043959 28 0 0.0 0.0 0.00 0.02 0.00 96 1024.4
20190121043759 27 0 0.0 0.0 0.00 0.02 0.00 96 1024.4
20190121043559 27 0 0.0 0.0 0.00 0.02 0.00 96 1024.4
20190121043359 27 0 0.0 0.0 0.00 0.02 0.00 96 1024.4
20190121043159 27 0 0.0 0.0 0.00 0.02 0.00 96 1024.5
20190121042959 27 0 0.0 0.0 0.00 0.02 0.00 96 1024.5
20190121042759 27 0 0.0 0.0 0.00 0.02 0.00 96 1024.5
20190121042559 27 0 0.0 0.0 0.00 0.02 0.00 96 1024.6
20190121042359 27 0 0.0 0.0 0.00 0.02 0.00 96 1024.6
20190121042159 27 0 0.0 0.0 0.00 0.02 0.00 96 1024.6
20190121041958 27 0 0.0 0.0 0.00 0.02 0.00 96 1024.7
20190121041759 27 0 0.0 0.0 0.00 0.02 0.00 96 1024.6
20190121041558 27 0 0.0 0.0 0.00 0.02 0.00 96 1024.7
20190121041359 27 0 0.0 0.0 0.00 0.02 0.00 96 1024.7
20190121041159 27 0 0.0 0.0 0.00 0.02 0.00 96 1024.7
20190121040959 27 0 0.0 0.0 0.00 0.02 0.00 96 1024.7
20190121040759 27 0 0.0 0.0 0.00 0.02 0.00 96 1024.9
20190121040559 27 0 0.0 0.0 0.00 0.02 0.00 96 1024.9
20190121040359 27 0 0.0 0.0 0.00 0.02 0.00 96 1024.9
20190121040159 27 0 0.0 0.0 0.00 0.02 0.00 96 1025.0
20190121035959 27 0 0.0 0.0 0.00 0.02 0.00 96 1024.9
20190121035800 27 0 0.0 0.0 0.00 0.02 0.00 96 1025.2
20190121035559 27 0 0.0 0.0 0.00 0.02 0.00 96 1025.2
20190121035359 27 0 0.0 0.0 0.00 0.02 0.00 96 1025.1
20190121035200 27 0 0.0 0.0 0.00 0.02 0.00 95 1025.1
20190121034959 27 0 0.0 0.0 0.00 0.02 0.00 95 1025.2
20190121034759 27 0 0.0 0.0 0.00 0.02 0.00 95 1025.2
20190121034559 27 0 0.0 0.0 0.00 0.02 0.00 96 1025.2
20190121034400 27 0 0.0 0.0 0.00 0.02 0.00 96 1025.4
20190121034159 27 0 0.0 0.0 0.00 0.02 0.00 96 1025.4
20190121033959 27 0 0.0 0.0 0.00 0.02 0.00 95 1025.4
20190121033759 27 0 1.0 0.0 0.00 0.02 0.00 95 1025.3
20190121033600 27 0 1.0 0.0 0.00 0.02 0.00 95 1025.3
20190121033359 27 0 1.0 0.0 0.00 0.02 0.00 95 1025.3
20190121033159 27 344 1.0 5.0 0.00 0.02 0.00 96 1025.3
20190121033000 27 344 1.0 5.0 0.00 0.02 0.00 96 1025.3
20190121032759 27 344 1.0 5.0 0.00 0.02 0.00 96 1025.4
20190121032600 27 344 0.0 5.0 0.00 0.02 0.00 95 1025.3
20190121032359 26 344 0.0 5.0 0.00 0.02 0.00 96 1025.4
20190121032200 26 344 0.0 4.0 0.00 0.02 0.00 96 1025.4
20190121032000 26 343 0.0 3.0 0.00 0.02 0.00 95 1025.5
20190121031800 26 0 0.0 0.0 0.00 0.02 0.00 95 1025.5
20190121031600 26 0 0.0 0.0 0.00 0.02 0.00 95 1025.5
20190121031359 26 0 0.0 0.0 0.00 0.02 0.00 95 1025.6
20190121031200 26 0 0.0 0.0 0.00 0.02 0.00 95 1025.6
20190121031000 26 0 0.0 0.0 0.00 0.02 0.00 95 1025.6
20190121030759 26 0 0.0 0.0 0.00 0.02 0.00 95 1025.8
20190121030600 26 0 0.0 0.0 0.00 0.02 0.00 95 1025.9
20190121030426 26 0 0.0 0.0 0.00 0.02 0.00 95 1025.9
20190121030300 26 0 0.0 0.0 0.00 0.02 0.00 95 1025.9
20190121030059 26 0 0.0 0.0 0.00 0.02 0.00 95 1025.8
20190121025900 27 0 0.0 0.0 0.00 0.02 0.00 95 1025.7
20190121025659 27 0 0.0 0.0 0.00 0.02 0.00 95 1025.7
20190121025459 27 0 0.0 0.0 0.00 0.02 0.00 95 1025.8
20190121025300 27 0 0.0 0.0 0.00 0.02 0.00 95 1025.8
20190121025100 27 0 0.0 0.0 0.00 0.02 0.00 95 1025.8
20190121024859 27 0 0.0 0.0 0.00 0.02 0.00 95 1025.9
20190121024700 27 0 0.0 0.0 0.00 0.02 0.00 95 1025.9
20190121024500 27 0 0.0 0.0 0.00 0.02 0.00 95 1025.9
20190121024300 27 0 0.0 0.0 0.00 0.02 0.00 95 1025.9
20190121024100 27 0 0.0 0.0 0.00 0.02 0.00 95 1025.9
20190121023859 27 0 0.0 0.0 0.00 0.02 0.00 95 1026.0
20190121023700 27 0 0.0 0.0 0.00 0.02 0.00 95 1025.9
20190121023459 27 0 0.0 0.0 0.00 0.02 0.00 95 1025.9
20190121023300 27 0 0.0 0.0 0.00 0.02 0.00 95 1026.0
20190121023100 27 0 0.0 0.0 0.00 0.02 0.00 95 1026.0
20190121022900 27 0 0.0 0.0 0.00 0.02 0.00 95 1026.0
20190121022700 27 0 0.0 0.0 0.00 0.02 0.00 95 1025.9
20190121022500 27 0 0.0 0.0 0.00 0.02 0.00 95 1026.0
20190121022300 27 0 0.0 0.0 0.00 0.02 0.00 95 1026.0
20190121022100 27 0 0.0 0.0 0.00 0.02 0.00 95 1025.9
20190121021900 28 0 0.0 0.0 0.00 0.02 0.00 95 1026.0
20190121021700 28 0 0.0 0.0 0.00 0.02 0.00 95 1025.9
20190121021500 28 0 0.0 0.0 0.00 0.02 0.00 95 1026.0
20190121021301 28 0 0.0 0.0 0.00 0.02 0.00 95 1026.0
20190121021100 28 0 0.0 0.0 0.00 0.02 0.00 95 1026.1
20190121020900 28 0 0.0 0.0 0.00 0.02 0.00 95 1026.1
20190121020700 28 0 0.0 0.0 0.00 0.02 0.00 95 1026.1
20190121020500 28 0 0.0 0.0 0.00 0.02 0.00 95 1026.1
20190121020300 28 0 0.0 0.0 0.00 0.02 0.00 95 1026.0
20190121020100 28 0 0.0 0.0 0.00 0.02 0.00 95 1026.1
20190121015901 28 0 0.0 0.0 0.00 0.02 0.00 95 1026.1
20190121015700 28 0 0.0 0.0 0.00 0.02 0.00 95 1026.2
20190121015500 28 0 0.0 0.0 0.00 0.02 0.00 95 1026.2
20190121015300 28 0 0.0 0.0 0.00 0.02 0.00 95 1026.2
20190121015100 28 0 0.0 0.0 0.00 0.02 0.00 95 1026.2
20190121014900 28 0 0.0 0.0 0.00 0.02 0.00 95 1026.3
20190121014701 28 0 0.0 0.0 0.00 0.02 0.00 95 1026.3
20190121014500 28 0 0.0 0.0 0.00 0.02 0.00 95 1026.4
20190121014300 28 0 0.0 0.0 0.00 0.02 0.00 95 1026.4
20190121014100 28 0 0.0 0.0 0.00 0.02 0.00 95 1026.4
20190121013900 28 0 0.0 0.0 0.00 0.02 0.00 95 1026.4
20190121013701 28 0 0.0 0.0 0.00 0.02 0.00 95 1026.4
20190121013500 28 0 0.0 0.0 0.00 0.02 0.00 95 1026.5
20190121013301 28 0 0.0 0.0 0.00 0.02 0.00 95 1026.5
20190121013100 28 0 0.0 0.0 0.00 0.02 0.00 95 1026.5
20190121012901 28 0 0.0 0.0 0.00 0.02 0.00 95 1026.5
20190121012700 28 0 0.0 0.0 0.00 0.02 0.00 95 1026.6
20190121012501 28 0 0.0 0.0 0.00 0.02 0.00 95 1026.6
20190121012300 28 0 0.0 0.0 0.00 0.02 0.00 95 1026.4
20190121012100 28 0 0.0 0.0 0.00 0.02 0.00 95 1026.4
20190121011901 29 0 0.0 0.0 0.00 0.02 0.00 95 1026.5
20190121011700 29 0 0.0 0.0 0.00 0.02 0.00 95 1026.5
20190121011501 29 0 0.0 0.0 0.00 0.02 0.00 95 1026.5
20190121011300 29 0 0.0 0.0 0.00 0.02 0.00 95 1026.5
20190121011101 29 0 0.0 0.0 0.00 0.02 0.00 95 1026.5
20190121010900 29 0 0.0 0.0 0.00 0.02 0.00 95 1026.4
20190121010701 29 0 0.0 0.0 0.00 0.02 0.00 95 1026.5
20190121010500 28 0 0.0 0.0 0.00 0.02 0.00 95 1026.4
20190121010301 28 0 0.0 0.0 0.00 0.02 0.00 95 1026.3
20190121010100 28 0 0.0 0.0 0.00 0.02 0.00 95 1026.3
20190121005901 28 0 0.0 0.0 0.00 0.02 0.00 95 1026.3
20190121005701 29 0 0.0 0.0 0.00 0.02 0.00 95 1026.4
20190121005501 29 0 0.0 0.0 0.00 0.02 0.00 95 1026.4
20190121005302 29 0 0.0 0.0 0.00 0.02 0.00 95 1026.4
20190121005100 30 0 0.0 0.0 0.00 0.02 0.00 95 1026.6
20190121004901 30 0 0.0 0.0 0.00 0.02 0.00 95 1026.5
20190121004701 30 0 0.0 0.0 0.00 0.02 0.00 95 1026.6
20190121004501 30 0 0.0 0.0 0.00 0.02 0.00 95 1026.5
20190121004301 29 0 0.0 0.0 0.00 0.02 0.00 95 1026.6
20190121004101 29 0 0.0 0.0 0.00 0.02 0.00 95 1026.6
20190121003901 29 0 0.0 0.0 0.00 0.02 0.00 95 1026.6
20190121003701 29 0 0.0 0.0 0.00 0.02 0.00 95 1026.6
20190121003501 29 0 0.0 0.0 0.00 0.02 0.00 95 1026.7
20190121003301 29 0 0.0 0.0 0.00 0.02 0.00 95 1026.7
20190121003101 29 0 0.0 0.0 0.00 0.02 0.00 95 1026.7
20190121002901 29 0 0.0 0.0 0.00 0.02 0.00 95 1026.8
20190121002701 29 0 0.0 0.0 0.00 0.02 0.00 95 1026.8
20190121002501 29 0 0.0 0.0 0.00 0.02 0.00 95 1026.8
20190121002301 29 0 0.0 0.0 0.00 0.02 0.00 95 1026.8
20190121002101 29 0 0.0 0.0 0.00 0.02 0.00 95 1026.8
20190121001902 29 0 0.0 0.0 0.00 0.02 0.00 95 1026.9
20190121001701 29 0 0.0 0.0 0.00 0.02 0.00 95 1026.9
20190121001503 28 0 0.0 0.0 0.00 0.02 0.00 95 1026.9
20190121001301 28 0 0.0 0.0 0.00 0.02 0.00 95 1027.0
20190121001101 28 0 0.0 0.0 0.00 0.02 0.00 95 1027.0
20190121000901 28 0 0.0 0.0 0.00 0.02 0.00 95 1027.0
20190121000701 28 0 0.0 0.0 0.00 0.02 0.00 95 1026.9
20190121000502 28 0 0.0 0.0 0.00 0.02 0.00 95 1027.0
20190121000301 28 0 0.0 0.0 0.00 0.02 0.00 95 1027.0
20190121000102 29 0 0.0 0.0 0.00 0.02 0.00 95 1027.0
20190120235901 29 0 0.0 0.0 0.00 0.02 0.00 95 1027.0
20190120235701 29 0 0.0 0.0 0.00 0.02 0.02 95 1027.1
20190120235501 29 0 0.0 0.0 0.00 0.02 0.02 95 1027.1
20190120235301 29 0 0.0 0.0 0.00 0.02 0.02 95 1027.2
20190120235101 29 0 0.0 0.0 0.00 0.02 0.02 95 1027.2
20190120234902 29 0 0.0 0.0 0.00 0.02 0.02 95 1027.1
20190120234701 29 0 0.0 0.0 0.00 0.02 0.02 95 1027.2
20190120234502 29 0 0.0 0.0 0.00 0.02 0.02 95 1027.1
20190120234301 30 0 0.0 0.0 0.00 0.02 0.02 95 1027.2
20190120234101 29 0 0.0 0.0 0.00 0.02 0.02 95 1027.1
20190120233901 29 0 0.0 0.0 0.00 0.02 0.02 95 1027.1
20190120233702 29 0 0.0 0.0 0.00 0.02 0.02 95 1027.2
20190120233501 29 0 0.0 0.0 0.00 0.02 0.02 95 1027.2
20190120233301 29 0 0.0 0.0 0.00 0.02 0.02 95 1027.2
20190120233101 29 0 0.0 0.0 0.00 0.02 0.02 95 1027.2
20190120232901 29 0 0.0 0.0 0.00 0.02 0.02 95 1027.0
20190120232702 29 0 0.0 0.0 0.00 0.02 0.02 95 1027.0
20190120232501 29 0 0.0 0.0 0.00 0.02 0.02 95 1027.0
20190120232302 29 0 0.0 0.0 0.00 0.02 0.02 94 1027.1
20190120232101 29 0 0.0 0.0 0.00 0.02 0.02 94 1027.3
20190120231902 29 0 0.0 0.0 0.00 0.02 0.02 94 1027.2
20190120231702 29 0 0.0 0.0 0.00 0.02 0.02 95 1027.3
20190120231502 30 0 0.0 0.0 0.00 0.02 0.02 95 1027.2
20190120231302 30 0 0.0 0.0 0.00 0.02 0.02 95 1027.2
20190120231102 30 0 0.0 0.0 0.00 0.02 0.02 95 1027.2
20190120230901 30 0 0.0 0.0 0.00 0.02 0.02 95 1027.2
20190120230702 30 0 0.0 0.0 0.00 0.02 0.02 95 1027.2
20190120230502 30 0 0.0 0.0 0.00 0.02 0.02 95 1027.1
20190120230302 29 0 0.0 0.0 0.00 0.02 0.02 95 1027.1
20190120230101 29 0 0.0 0.0 0.00 0.02 0.02 94 1027.1
20190120225902 29 0 0.0 0.0 0.00 0.02 0.02 94 1027.1
20190120225702 30 0 0.0 0.0 0.00 0.02 0.02 94 1027.2
20190120225501 30 0 0.0 0.0 0.00 0.02 0.02 94 1027.2
20190120225302 30 0 0.0 0.0 0.00 0.02 0.02 95 1027.2
20190120225101 30 0 0.0 0.0 0.00 0.02 0.02 95 1027.1
20190120224902 30 0 0.0 0.0 0.00 0.02 0.02 94 1027.2
20190120224702 30 0 0.0 0.0 0.00 0.02 0.02 94 1027.2
20190120224502 30 0 0.0 0.0 0.00 0.02 0.02 94 1027.2
20190120224302 30 0 0.0 0.0 0.00 0.02 0.02 94 1027.2
20190120224102 30 0 0.0 0.0 0.00 0.02 0.02 94 1027.1
20190120223901 30 0 0.0 0.0 0.00 0.02 0.02 94 1027.2
20190120223703 30 0 0.0 0.0 0.00 0.02 0.02 94 1027.2
20190120223502 30 0 0.0 0.0 0.00 0.02 0.02 94 1027.2
20190120223302 31 0 0.0 0.0 0.00 0.02 0.02 94 1027.2
20190120223101 31 0 0.0 0.0 0.00 0.02 0.02 94 1027.2
20190120222902 31 0 0.0 0.0 0.00 0.02 0.02 94 1027.2
20190120222702 31 0 0.0 0.0 0.00 0.02 0.02 94 1027.1
20190120222502 31 0 0.0 0.0 0.00 0.02 0.02 94 1027.1
20190120222302 31 0 0.0 0.0 0.00 0.02 0.02 94 1027.2
20190120222102 31 0 0.0 0.0 0.00 0.02 0.02 94 1027.1
20190120221902 31 0 0.0 0.0 0.00 0.02 0.02 94 1027.1
20190120221702 31 0 0.0 0.0 0.00 0.02 0.02 94 1027.0
20190120221502 31 0 0.0 0.0 0.00 0.02 0.02 94 1027.1
20190120221302 31 0 0.0 0.0 0.00 0.02 0.02 94 1027.0
20190120221102 31 0 0.0 0.0 0.00 0.02 0.02 94 1026.9
20190120220902 31 0 0.0 0.0 0.00 0.02 0.02 94 1026.9
20190120220703 31 0 0.0 0.0 0.00 0.02 0.02 94 1027.0
20190120220504 31 0 0.0 0.0 0.00 0.02 0.02 94 1027.0
20190120220302 31 0 0.0 0.0 0.00 0.02 0.02 94 1026.9
20190120220103 32 0 0.0 0.0 0.00 0.02 0.02 94 1026.9
20190120215902 32 0 0.0 0.0 0.00 0.02 0.02 94 1026.9
20190120215702 32 0 0.0 0.0 0.00 0.02 0.02 94 1026.9
20190120215503 32 0 0.0 0.0 0.00 0.02 0.02 94 1026.9
20190120215302 32 0 0.0 0.0 0.00 0.02 0.02 93 1026.9
20190120215103 32 0 0.0 0.0 0.00 0.02 0.02 93 1026.9
20190120214902 33 0 1.0 0.0 0.00 0.02 0.02 94 1026.9
20190120214702 33 0 1.0 0.0 0.00 0.02 0.02 93 1026.9
20190120214502 33 0 1.0 0.0 0.00 0.02 0.02 94 1026.9
20190120214306 33 344 2.0 5.0 0.00 0.02 0.02 94 1026.9
20190120214102 34 344 2.0 8.0 0.00 0.02 0.02 94 1026.9
20190120213903 34 344 2.0 8.0 0.00 0.02 0.02 94 1026.8
20190120213702 34 344 1.0 8.0 0.00 0.02 0.02 94 1026.8
20190120213502 33 344 1.0 8.0 0.00 0.02 0.02 94 1026.8
20190120213302 33 344 1.0 8.0 0.00 0.02 0.02 94 1026.7
20190120213103 33 344 0.0 8.0 0.00 0.02 0.02 94 1026.6
20190120212903 33 343 0.0 8.0 0.00 0.02 0.02 94 1026.7
20190120212702 33 0 0.0 0.0 0.00 0.02 0.02 94 1026.6
20190120212503 32 0 0.0 0.0 0.00 0.02 0.02 94 1026.5
20190120212302 32 0 0.0 0.0 0.00 0.02 0.02 94 1026.7
20190120212103 32 0 0.0 0.0 0.00 0.02 0.02 93 1026.7
20190120211902 32 0 0.0 0.0 0.00 0.02 0.02 93 1026.6
20190120211703 32 0 0.0 0.0 0.00 0.02 0.02 93 1026.6
20190120211503 32 0 0.0 0.0 0.00 0.02 0.02 93 1026.6
20190120211302 32 0 0.0 0.0 0.00 0.02 0.02 93 1026.6
20190120211103 32 0 0.0 0.0 0.00 0.02 0.02 93 1026.6
20190120210903 32 0 0.0 0.0 0.00 0.02 0.02 93 1026.6
20190120210703 33 0 0.0 0.0 0.00 0.02 0.02 93 1026.6
20190120210503 33 0 0.0 0.0 0.00 0.02 0.02 93 1026.5
20190120210304 33 0 0.0 0.0 0.00 0.02 0.02 93 1026.6
20190120210103 33 0 0.0 0.0 0.00 0.02 0.02 92 1026.6
20190120205903 33 0 0.0 0.0 0.00 0.02 0.02 92 1026.6
20190120205703 33 343 0.0 5.0 0.00 0.02 0.02 92 1026.6
20190120205503 33 343 0.0 5.0 0.00 0.02 0.02 92 1026.5
20190120205303 34 343 0.0 5.0 0.00 0.02 0.02 93 1026.6
20190120205104 34 343 0.0 5.0 0.00 0.02 0.02 93 1026.5
20190120204903 34 343 0.0 5.0 0.00 0.02 0.02 93 1026.5
20190120204703 34 0 1.0 0.0 0.00 0.02 0.02 93 1026.5
20190120204504 34 0 1.0 0.0 0.00 0.02 0.02 93 1026.5
20190120204304 34 0 1.0 0.0 0.00 0.02 0.02 93 1026.5
20190120204103 34 344 1.0 6.0 0.00 0.02 0.02 93 1026.5
20190120203903 34 344 1.0 6.0 0.00 0.02 0.02 93 1026.5
20190120203703 34 344 1.0 7.0 0.00 0.02 0.02 92 1026.5
20190120203504 34 344 0.0 7.0 0.00 0.02 0.02 93 1026.6
20190120203303 34 344 0.0 7.0 0.00 0.02 0.02 93 1026.4
20190120203103 34 344 0.0 7.0 0.00 0.02 0.02 92 1026.4
20190120202903 34 343 0.0 7.0 0.00 0.02 0.02 92 1026.4
20190120202703 34 0 0.0 0.0 0.00 0.02 0.02 92 1026.4
20190120202504 34 0 0.0 0.0 0.00 0.02 0.02 92 1026.5
20190120202303 34 0 0.0 0.0 0.00 0.02 0.02 92 1026.5
20190120202103 34 344 0.0 6.0 0.00 0.02 0.02 92 1026.4
20190120201904 34 344 0.0 6.0 0.00 0.02 0.02 92 1026.5
20190120201703 34 344 0.0 6.0 0.00 0.02 0.02 92 1026.5
20190120201504 34 344 1.0 6.0 0.00 0.02 0.02 92 1026.5
20190120201304 34 344 1.0 6.0 0.00 0.02 0.02 91 1026.5
20190120201103 35 344 1.0 5.0 0.00 0.02 0.02 91 1026.5
20190120200903 35 344 2.0 5.0 0.00 0.02 0.02 91 1026.5
20190120200703 35 344 3.0 5.0 0.00 0.02 0.02 91 1026.5
20190120200506 35 343 4.0 6.0 0.00 0.02 0.02 91 1026.4
20190120200303 35 343 5.0 6.0 0.00 0.02 0.02 91 1026.4
20190120200103 35 344 5.0 7.0 0.00 0.02 0.02 91 1026.3
20190120195904 35 344 6.0 7.0 0.00 0.02 0.02 91 1026.4
20190120195704 35 344 6.0 7.0 0.00 0.02 0.02 91 1026.4
20190120195503 35 344 6.0 8.0 0.00 0.02 0.02 91 1026.4
20190120195304 35 344 5.0 8.0 0.00 0.02 0.02 91 1026.2
20190120195104 35 344 5.0 8.0 0.00 0.02 0.02 91 1026.2
20190120194903 35 344 4.0 8.0 0.00 0.02 0.02 91 1026.2
20190120194704 35 344 3.0 8.0 0.00 0.02 0.02 91 1026.2
20190120194504 35 344 2.0 8.0 0.00 0.02 0.02 92 1026.2
20190120194304 35 344 1.0 8.0 0.00 0.02 0.02 92 1026.2
20190120194103 35 344 0.0 7.0 0.00 0.02 0.02 91 1026.2
20190120193904 35 344 0.0 6.0 0.00 0.02 0.02 91 1026.2
20190120193704 35 343 0.0 6.0 0.00 0.02 0.02 91 1026.1
20190120193504 35 0 0.0 0.0 0.00 0.02 0.02 91 1026.0
20190120193304 35 0 0.0 0.0 0.00 0.02 0.02 90 1026.0
20190120193104 35 0 0.0 0.0 0.00 0.02 0.02 90 1026.0
20190120192903 35 0 0.0 0.0 0.00 0.02 0.02 90 1026.0
20190120192704 35 0 0.0 0.0 0.00 0.02 0.02 89 1026.0
20190120192504 35 0 0.0 0.0 0.00 0.02 0.02 89 1026.0
20190120192304 35 0 1.0 0.0 0.00 0.02 0.02 88 1026.0
20190120192104 35 0 1.0 0.0 0.00 0.02 0.02 88 1026.0
20190120191904 35 0 2.0 0.0 0.00 0.02 0.02 88 1026.1
20190120191704 35 343 3.0 5.0 0.00 0.02 0.02 88 1026.1
20190120191504 36 344 3.0 6.0 0.00 0.02 0.02 89 1026.1
20190120191305 36 344 4.0 6.0 0.00 0.02 0.02 89 1026.0
20190120191104 36 344 4.0 6.0 0.00 0.02 0.02 89 1026.0
20190120190904 36 344 5.0 8.0 0.00 0.02 0.02 89 1025.9
20190120190703 36 344 5.0 8.0 0.00 0.02 0.02 89 1025.9
20190120190504 36 344 5.0 8.0 0.00 0.02 0.02 89 1025.8
20190120190304 36 344 5.0 8.0 0.00 0.02 0.02 89 1025.8
20190120190104 37 344 5.0 8.0 0.00 0.02 0.02 89 1025.8
20190120185904 36 344 5.0 8.0 0.00 0.02 0.02 89 1025.8
20190120185704 37 344 5.0 8.0 0.00 0.02 0.02 89 1025.8
20190120185504 37 344 5.0 8.0 0.00 0.02 0.02 89 1025.7
20190120185304 37 344 5.0 7.0 0.00 0.02 0.02 88 1025.6
20190120185104 37 344 5.0 7.0 0.00 0.03 0.02 88 1025.6
20190120184904 37 344 5.0 7.0 0.00 0.03 0.02 88 1025.6
20190120184704 37 344 5.0 8.0 0.00 0.03 0.02 88 1025.6
20190120184504 37 344 5.0 8.0 0.00 0.03 0.02 88 1025.7
20190120184304 37 344 4.0 9.0 0.00 0.03 0.02 88 1025.7
20190120184104 37 344 4.0 9.0 0.00 0.03 0.02 88 1025.7
20190120183904 37 344 4.0 9.0 0.00 0.03 0.02 88 1025.7
20190120183705 37 344 4.0 9.0 0.00 0.03 0.02 88 1025.7
20190120183505 37 344 4.0 9.0 0.00 0.03 0.02 88 1025.7
20190120183304 37 344 4.0 7.0 0.00 0.03 0.02 88 1025.7
20190120183104 37 344 3.0 8.0 0.00 0.03 0.02 88 1025.6
20190120182904 37 344 3.0 8.0 0.00 0.03 0.02 88 1025.5
20190120182705 37 344 3.0 8.0 0.00 0.03 0.02 88 1025.6
20190120182305 37 344 3.0 8.0 0.00 0.03 0.02 87 1025.6
20190120182105 38 344 4.0 8.0 0.00 0.03 0.02 87 1025.6
20190120181904 38 344 4.0 6.0 0.00 0.03 0.02 87 1025.5
20190120181704 38 344 5.0 6.0 0.00 0.03 0.02 87 1025.4
20190120181505 38 344 5.0 6.0 0.00 0.03 0.02 87 1025.5
20190120181304 38 344 5.0 6.0 0.00 0.03 0.02 86 1025.4
20190120181104 38 344 5.0 7.0 0.00 0.03 0.02 86 1025.5
20190120180904 38 344 5.0 7.0 0.00 0.03 0.02 86 1025.4
20190120180705 38 344 5.0 7.0 0.00 0.03 0.02 86 1025.4
20190120180504 38 344 5.0 7.0 0.00 0.03 0.02 86 1025.3
20190120180304 38 344 5.0 7.0 0.00 0.03 0.02 85 1025.2
20190120180104 38 344 5.0 7.0 0.00 0.03 0.02 85 1025.3
20190120175905 39 344 5.0 8.0 0.00 0.03 0.02 85 1025.2
20190120175704 39 344 4.0 8.0 0.00 0.03 0.02 85 1025.2
20190120175504 39 344 3.0 8.0 0.00 0.03 0.02 85 1025.2
20190120175306 39 344 2.0 8.0 0.00 0.03 0.02 85 1025.2
20190120175104 39 344 2.0 8.0 0.00 0.03 0.02 85 1025.2
20190120174905 39 344 1.0 7.0 0.00 0.03 0.02 85 1025.1
20190120174705 39 344 0.0 6.0 0.00 0.03 0.02 85 1025.1
20190120174505 39 344 0.0 6.0 0.00 0.03 0.02 85 1025.2
20190120174305 39 344 0.0 6.0 0.00 0.03 0.02 85 1025.1
20190120174104 39 0 0.0 0.0 0.00 0.03 0.02 85 1025.2